Bangor, ME (04401)

3:32 AM EST on February 12, 2016 (GMT -0500)
Essex St Hill | | Change Station
CLOSE
Current Station
Personal Weather Station
Location: Bangor, ME
Elevation: 208 ft
Nearby Weather Stations
Active Advisory: Winter Storm Watch Active Notice: Local Storm Report

Elev 208 ft 44.82 °N, 68.77 °W | Updated 6 seconds ago

Clear
Clear
0.3 °F
Feels Like -9 °F
N
4.0
Wind Variable Wind from NW
Gusts 7.0 mph

Today
High -- | Low -- °F
--% Chance of Precip.
Yesterday
High -- | Low -- °F
Precip. -- in
Pressure 29.95 in
Visibility 10.0 miles
Clouds Clear
Windchill -9 °F
Dew Point -12 °F
Humidity 55%
Rainfall 0.00 in
Snow Depth Not available.
6:41 AM 4:58 PM
Waxing Crescent, 18% visible
METAR KBGR 120753Z 29006KT 10SM CLR M18/M24 A2994 RMK AO2 SLP142 T11781239
Pressure 29.95 in
Visibility 10.0 miles
Clouds Clear
Windchill -9 °F
Dew Point -12 °F
Humidity 55%
Rainfall 0.00 in
Snow Depth Not available.
6:41 AM 4:58 PM
Waxing Crescent, 18% visible
METAR KBGR 120753Z 29006KT 10SM CLR M18/M24 A2994 RMK AO2 SLP142 T11781239

10-Day Weather Forecast

Almanac

Astronomy

Feb. 12, 2016 Rise Set
Actual Time
Civil Twilight
Nautical Twilight
Astronomical Twilight
Moon
Length of Visible Light
Length of Day
Tomorrow will be .
, % of the Moon is Illuminated

Today's Extremes

State Highs State Lows

Community

WunderPhotos

Upload Photos

1,892,284 photos uploaded!

WunderBlog® & News

Nearby

Air Quality

  Air Quality AQ Index Pollutant
Not available.

Snow Depth

Station Depth Elevation

Earthquake Activity

City Distance Mag. Time & Date
Minimum magnitude displayed is 2.5.

Coastal Water Temperatures

Place Temperature

Stations

Nearby Weather Stations

Station Location Temp. Windchill Dew Point Humidity Wind Precip. Elev Updated Type
                   

Watches & Warnings

Winter Storm Watch
Issued: 2:52 AM EST Feb. 12, 2016 – National Weather Service

... Winter Storm Watch remains in effect from late tonight through
late Saturday night...

* locations... Hancock and southern Penobscot County.

* Hazard types... snow and blowing snow.

* Accumulations... potential snow accumulation of 7 to 15 inches
in a very narrow band along the coast. Amounts will likely drop
off considerably inland towards interior Hancock County and
southern Penobscot County.

* Timing... late Friday night to Saturday night.

* Impacts... moderate impact. Locally heavy snowfall and areas of
blowing snow will result in difficult driving conditions.
Snowfall will decrease later Saturday but blowing snow will
continue into Saturday night.

* Winds... northeast 10 to 15 mph with gusts up to 25 mph.

* Temperatures... in the lower 20s.

* Visibilities... 1/4sm or less at times.

Precautionary/preparedness actions...

A Winter Storm Watch means there is a potential for significant
snow... sleet... or ice accumulations that may impact travel.
Continue to monitor the latest forecasts.



Vjn/mcw